Ridgewood, NY (11385)

6:53 PM EDT on August 27, 2014 (GMT -0400)
Glendale | Change Station
CLOSE
Current Station
Personal Weather Station
Location: Queens,The Original 11385, NY
Elevation: 120 ft
Nearby Weather Stations

Elev 120 ft 40.70 °N, 73.89 °W | Updated 1 second ago

Partly Cloudy
Partly Cloudy
81.7 °F
Feels Like 84 °F
N
7.0
Wind Variable Wind from SW
Gusts 11.0 mph

Today
High -- | Low -- °F
--% Chance of Precip.
Yesterday
High -- | Low -- °F
Precip. -- in
6:17 AM 7:35 PM
Waxing Crescent, 5% visible
Pressure 29.87 in
Visibility 10.0 miles
Clouds Few 6500 ft
Heat Index 84 °F
Dew Point 67 °F
Humidity 61%
Rainfall 0.00 in
Snow Depth Not available.
UV 1 out of 12
Pollen 10.00 out of 12
Air Quality Not available.
Flu Activity Not available.
METAR KLGA 272151Z 17009KT 10SM FEW065 30/18 A2987 RMK AO2 SLP115 T03000183

More Conditions Fewer Conditions

Pressure 29.87 in
Visibility 10.0 miles
Clouds Few 6500 ft
Heat Index 84 °F
Dew Point 67 °F
Humidity 61%
Rainfall 0.00 in
Snow Depth Not available.
UV 1 out of 12
Pollen 10.00 out of 12
Air Quality Not available.
Flu Activity Not available.
METAR KLGA 272151Z 17009KT 10SM FEW065 30/18 A2987 RMK AO2 SLP115 T03000183

More Conditions Fewer Conditions

10-Day Weather Forecast

Almanac

Astronomy

Aug. 27, 2014 Rise Set
Actual Time 6:17 AM EDT 7:35 PM EDT
Civil Twilight 5:49 AM EDT 8:04 PM EDT
Nautical Twilight 5:15 AM EDT 8:38 PM EDT
Astronomical Twilight 4:39 AM EDT 9:13 PM EDT
Moon 8:12 AM EDT 8:25 PM EDT
Length of Visible Light 14h 14m
Length of Day
13h 18m
Tomorrow will be 2m 33s shorter.
Waxing Crescent, 5% of the Moon is Illuminated
Today
Waxing Crescent
Sep 2
First Quarter
Sep 8
Full
Sep 15
Last Quarter
Sep 24
New

Today's Extremes

State Highs State Lows

Community

WunderPhotos

Upload Photos

1,747,805 photos uploaded!

Nearby

Snow Depth

Station Depth Elevation
No new snow has been reported.

Earthquake Activity

City Distance Mag. Time & Date
No recent earthquake activity has been reported nearby.
Minimum magnitude displayed is 2.5.

Coastal Water Temperatures

Place Temperature
Sandy Hook, NJ 78.1 °F
The Battery, NY 75.0 °F
Bergen Point West Reach, NJ 75.0 °F

Nearby Weather Stations